createdAt,value
2018-03-28T15:30:16.542Z,96269.34
2018-03-28T15:32:44.119Z,96260.33
2018-03-28T15:35:11.527Z,96259.77
2018-03-28T15:37:39.840Z,96247.09
2018-03-28T15:40:07.324Z,96250.75
2018-03-28T15:42:35.168Z,96239.60
2018-03-28T15:45:02.961Z,96236.22
2018-03-28T15:47:30.358Z,96239.58
2018-03-28T15:49:57.875Z,96230.41
2018-03-28T15:52:25.315Z,96226.73
2018-03-28T15:54:52.776Z,96223.47
2018-03-28T15:57:20.216Z,96219.76
2018-03-28T15:59:47.671Z,96219.27
2018-03-28T16:02:15.141Z,96217.59
2018-03-28T16:04:42.862Z,96218.39
2018-03-28T16:07:10.355Z,96208.34
2018-03-28T16:09:37.976Z,96216.09
2018-03-28T16:12:06.104Z,96212.26
2018-03-28T16:14:33.562Z,96203.80
2018-03-28T16:17:01.051Z,96204.64
2018-03-28T16:19:28.489Z,96198.50
2018-03-28T16:21:55.945Z,96196.47
2018-03-28T16:24:23.434Z,96190.17
2018-03-28T16:26:51.042Z,96187.05
2018-03-28T16:29:18.912Z,96184.36
2018-03-28T16:31:46.425Z,96183.77
2018-03-28T16:34:14.275Z,96177.97
2018-03-28T16:36:41.738Z,96179.77
2018-03-28T16:39:09.148Z,96172.42
2018-03-28T16:41:36.651Z,96184.86
2018-03-28T16:44:04.158Z,96175.66
2018-03-28T16:46:31.610Z,96170.97
2018-03-28T16:48:59.038Z,96173.83
2018-03-28T16:51:26.515Z,96165.59
2018-03-28T16:53:54.005Z,96166.31
2018-03-28T16:56:21.432Z,96165.36
2018-03-28T16:58:49.453Z,96161.69
2018-03-28T17:01:16.889Z,96161.42
2018-03-28T17:03:44.663Z,96158.50
2018-03-28T17:06:12.263Z,96166.97
2018-03-28T17:08:39.723Z,96157.31
2018-03-28T17:11:07.161Z,96146.30
2018-03-28T17:13:34.683Z,96142.16
2018-03-28T17:16:02.126Z,96144.19
2018-03-28T17:18:29.776Z,96145.14
2018-03-28T17:20:57.279Z,96150.95
2018-03-28T17:23:24.761Z,96149.87
2018-03-28T17:25:52.225Z,96153.41
2018-03-28T17:28:19.652Z,96144.98
2018-03-28T17:30:47.157Z,96149.23
2018-03-28T17:33:15.138Z,96147.48
2018-03-28T17:35:42.769Z,96146.95
2018-03-28T17:38:14.242Z,96151.14
2018-03-28T17:40:41.780Z,96146.72
2018-03-28T17:43:09.424Z,96144.52
2018-03-28T17:45:37.044Z,96145.05
2018-03-28T17:48:04.639Z,96147.13
2018-03-28T17:50:32.145Z,96152.75
2018-03-28T17:52:59.659Z,96149.96
2018-03-28T17:55:27.024Z,96152.76
2018-03-28T17:57:54.484Z,96155.22
2018-03-28T18:00:21.898Z,96153.33
2018-03-28T18:02:49.358Z,96165.47
2018-03-28T18:05:16.930Z,96168.09
2018-03-28T18:07:44.458Z,96173.67
2018-03-28T18:10:11.977Z,96171.94
2018-03-28T18:12:39.475Z,96169.64
2018-03-28T18:15:06.928Z,96178.27
2018-03-28T18:17:34.371Z,96182.03
2018-03-28T18:20:01.862Z,96187.84
2018-03-28T18:22:29.283Z,96194.80
2018-03-28T18:24:56.787Z,96193.05
2018-03-28T18:27:27.640Z,96200.37
2018-03-28T18:29:56.919Z,96197.53
2018-03-28T18:32:24.345Z,96203.61
2018-03-28T18:34:51.825Z,96211.05
2018-03-28T18:37:19.327Z,96214.58
2018-03-28T18:39:47.211Z,96213.16
2018-03-28T18:42:14.633Z,96223.71
2018-03-28T18:44:42.208Z,96223.78
2018-03-28T18:47:09.675Z,96227.09
2018-03-28T18:49:37.173Z,96232.97
2018-03-28T18:52:05.378Z,96235.81
2018-03-28T18:54:32.799Z,96241.05
2018-03-28T18:57:00.248Z,96234.05
2018-03-28T18:59:27.732Z,96233.52
2018-03-28T19:01:55.186Z,96229.55
2018-03-28T19:04:22.654Z,96236.62
2018-03-28T19:06:50.147Z,96234.64
2018-03-28T19:09:17.602Z,96225.94
2018-03-28T19:11:45.049Z,96226.25
2018-03-28T19:14:12.781Z,96217.86
2018-03-28T19:16:40.229Z,96219.09
2018-03-28T19:19:07.664Z,96222.69
2018-03-28T19:21:35.127Z,96218.95
2018-03-28T19:24:02.584Z,96223.45
2018-03-28T19:26:30.047Z,96218.61
2018-03-28T19:28:57.564Z,96221.34
2018-03-28T19:31:25.211Z,96226.56
2018-03-28T19:33:52.910Z,96221.11
2018-03-28T19:36:20.548Z,96218.08
2018-03-28T19:38:48.128Z,96219.75
2018-03-28T19:41:15.713Z,96220.74
2018-03-28T19:43:43.282Z,96210.03
2018-03-28T19:46:11.441Z,96217.86
2018-03-28T19:48:38.924Z,96224.41
2018-03-28T19:51:06.378Z,96226.83
2018-03-28T19:53:33.806Z,96223.78
2018-03-28T19:56:01.400Z,96228.77
2018-03-28T19:58:29.241Z,96230.53
2018-03-28T20:00:57.146Z,96226.00
2018-03-28T20:03:24.645Z,96230.30
2018-03-28T20:05:52.197Z,96226.72
2018-03-28T20:08:19.681Z,96233.05
2018-03-28T20:10:47.125Z,96228.30
2018-03-28T20:13:15.013Z,96231.83
2018-03-28T20:15:42.461Z,96236.06
2018-03-28T20:18:09.910Z,96235.72
2018-03-28T20:20:37.390Z,96235.90
2018-03-28T20:23:05.474Z,96235.50
2018-03-28T20:25:32.935Z,96239.82
2018-03-28T20:28:01.027Z,96244.98
2018-03-28T20:30:28.548Z,96244.50
2018-03-28T20:32:56.120Z,96247.67
2018-03-28T20:35:23.655Z,96247.58
2018-03-28T20:37:51.272Z,96250.36
2018-03-28T20:40:18.915Z,96254.70
2018-03-28T20:42:46.459Z,96260.22
2018-03-28T20:45:13.966Z,96260.63
2018-03-28T20:47:41.394Z,96263.41
2018-03-28T20:50:09.015Z,96262.08
2018-03-28T20:52:36.552Z,96269.72
2018-03-28T20:55:04.010Z,96276.67
2018-03-28T20:57:31.450Z,96280.73
2018-03-28T20:59:58.875Z,96288.56
2018-03-28T21:02:26.327Z,96286.67
2018-03-28T21:04:53.898Z,96299.13
2018-03-28T21:07:22.386Z,96305.95
2018-03-28T21:09:49.888Z,96307.34
2018-03-28T21:12:17.368Z,96313.05
2018-03-28T21:14:44.791Z,96304.81
2018-03-28T21:17:12.260Z,96309.05
2018-03-28T21:19:39.680Z,96317.95
2018-03-28T21:22:07.122Z,96316.76
2018-03-28T21:24:34.594Z,96312.92
2018-03-28T21:27:02.117Z,96320.95
2018-03-28T21:29:30.653Z,96324.03
2018-03-28T21:31:58.122Z,96311.96
2018-03-28T21:34:25.637Z,96318.22
2018-03-28T21:36:53.124Z,96320.23
2018-03-28T21:39:20.570Z,96327.98
2018-03-28T21:41:47.995Z,96343.34
2018-03-28T21:44:15.556Z,96345.20
2018-03-28T21:46:43.094Z,96359.42
2018-03-28T21:49:10.523Z,96354.23
2018-03-28T21:51:38.044Z,96360.41
2018-03-28T21:54:05.625Z,96362.34
2018-03-28T21:56:33.074Z,96359.48
2018-03-28T21:59:00.585Z,96366.29
2018-03-28T22:01:28.048Z,96364.70
2018-03-28T22:03:55.477Z,96369.38
2018-03-28T22:06:22.935Z,96378.03
2018-03-28T22:08:50.398Z,96378.03
2018-03-28T22:11:17.968Z,96379.61
2018-03-28T22:13:45.501Z,96385.73
2018-03-28T22:16:12.932Z,96386.80
2018-03-28T22:18:40.390Z,96386.84
2018-03-28T22:21:08.007Z,96391.03
2018-03-28T22:23:35.703Z,96388.63
2018-03-28T22:26:03.273Z,96393.78
2018-03-28T22:28:30.942Z,96404.14
2018-03-28T22:30:58.468Z,96410.25
2018-03-28T22:33:26.056Z,96412.69
2018-03-28T22:35:53.509Z,96416.95
2018-03-28T22:38:20.965Z,96416.14
2018-03-28T22:40:49.245Z,96414.60
2018-03-28T22:43:16.664Z,96428.80
2018-03-28T22:45:44.106Z,96444.07
2018-03-28T22:48:11.539Z,96457.72
2018-03-28T22:50:38.980Z,96460.73
2018-03-28T22:53:06.439Z,96463.17
2018-03-28T22:55:34.503Z,96473.00
2018-03-28T22:58:02.032Z,96477.97
2018-03-28T23:00:29.613Z,96488.26
2018-03-28T23:02:57.171Z,96495.78
2018-03-28T23:05:24.728Z,96499.31
2018-03-28T23:07:52.297Z,96507.41
2018-03-28T23:10:19.865Z,96515.84
2018-03-28T23:12:47.499Z,96517.62
2018-03-28T23:15:15.072Z,96516.38
2018-03-28T23:17:42.459Z,96534.94
2018-03-28T23:20:09.994Z,96538.80
2018-03-28T23:22:40.311Z,96547.90
2018-03-28T23:25:07.730Z,96558.65
2018-03-28T23:27:35.145Z,96554.13
2018-03-28T23:30:02.597Z,96548.98
2018-03-28T23:32:30.169Z,96547.00
2018-03-28T23:34:57.684Z,96551.00
2018-03-28T23:37:25.243Z,96568.66
2018-03-28T23:39:52.839Z,96576.56
2018-03-28T23:42:20.447Z,96576.95
2018-03-28T23:44:48.142Z,96581.73
2018-03-28T23:47:15.607Z,96593.13
2018-03-28T23:49:43.060Z,96606.02
2018-03-28T23:52:10.506Z,96606.70
2018-03-28T23:54:37.926Z,96600.99
2018-03-28T23:57:05.379Z,96584.06
2018-03-28T23:59:32.793Z,96594.22
